Terminal Aerodrome Forecast
Issued by NWS Twin Cities, MN

Home | Current Version | Previous Version | Graphics & Text | Print | Product List | Glossary On
Versions: 1 2 3 4 5 6 7 8 9 10 11 12 13 14 15 16 17 18 19 20 21 22 23 24 25 26 27 28 29 30
171
FTUS43 KMPX 270259 AAB
TAFMSP
TAF AMD
KMSP 270259Z 2703/2806 23007KT P6SM BKN150
     FM270330 36007KT P6SM SCT060 BKN150
     FM270430 VRB03KT P6SM BKN150
     FM271900 36006KT 5SM -TSRA BR SCT030 OVC060CB
     FM280100 03006KT P6SM VCSH OVC040=

USA.gov is the U.S. government's official web portal to all federal, state and local government web resources and services.